createdAt,value
2022-10-25T00:00:49.656Z,0.63
2022-10-25T00:02:47.336Z,0.63
2022-10-25T00:04:46.964Z,0.63
2022-10-25T00:06:46.979Z,0.63
2022-10-25T00:08:46.602Z,1.06
2022-10-25T00:10:48.399Z,1.06
2022-10-25T00:12:46.558Z,1.06
2022-10-25T00:14:46.893Z,0.74
2022-10-25T00:16:46.700Z,0.74
2022-10-25T00:18:46.840Z,0.74
2022-10-25T00:20:46.983Z,0.68
2022-10-25T00:22:47.446Z,0.68
2022-10-25T00:24:47.038Z,0.68
2022-10-25T00:26:46.338Z,0.68
2022-10-25T00:28:46.972Z,0.68
2022-10-25T00:30:46.615Z,0.68
2022-10-25T00:32:46.613Z,0.68
2022-10-25T00:34:46.938Z,0.68
2022-10-25T00:36:46.290Z,0.68
2022-10-25T00:38:47.134Z,0.68
2022-10-25T00:40:46.720Z,0.68
2022-10-25T00:42:46.652Z,0.68
2022-10-25T00:44:46.845Z,0.68
2022-10-25T00:46:46.494Z,0.68
2022-10-25T00:48:46.875Z,0.68
2022-10-25T00:50:47.194Z,0.68
2022-10-25T00:52:46.788Z,0.68
2022-10-25T00:54:46.613Z,0.68
2022-10-25T00:56:46.856Z,0.68
2022-10-25T00:58:46.463Z,0.68
2022-10-25T01:00:49.275Z,0.68
2022-10-25T01:02:47.960Z,0.68
2022-10-25T01:04:47.267Z,0.68
2022-10-25T01:06:46.547Z,0.68
2022-10-25T01:08:46.797Z,0.68
2022-10-25T01:10:46.414Z,0.68
2022-10-25T01:12:49.930Z,0.68
2022-10-25T01:14:46.721Z,0.68
2022-10-25T01:16:46.460Z,0.68
2022-10-25T01:18:46.710Z,0.68
2022-10-25T01:20:46.793Z,0.68
2022-10-25T01:22:47.284Z,0.68
2022-10-25T01:24:46.440Z,0.68
2022-10-25T01:26:46.825Z,21.27
2022-10-25T01:28:47.149Z,5.73
2022-10-25T01:30:46.711Z,5.73
2022-10-25T01:32:46.637Z,5.73
2022-10-25T01:34:46.893Z,5.73
2022-10-25T01:36:47.574Z,5.73
2022-10-25T01:38:46.673Z,5.73
2022-10-25T01:40:47.021Z,5.73
2022-10-25T01:42:46.934Z,5.73
2022-10-25T01:44:47.493Z,5.73
2022-10-25T01:46:46.884Z,5.73
2022-10-25T01:48:46.571Z,5.73
2022-10-25T01:50:46.793Z,5.73
2022-10-25T01:52:46.863Z,5.73
2022-10-25T01:54:46.448Z,5.73
2022-10-25T01:56:47.093Z,5.73
2022-10-25T01:58:47.122Z,5.73
2022-10-25T02:00:49.856Z,5.73
2022-10-25T02:02:46.874Z,5.73
2022-10-25T02:04:46.999Z,5.73
2022-10-25T02:06:46.513Z,5.73
2022-10-25T02:08:47.083Z,5.73
2022-10-25T02:10:46.625Z,5.73
2022-10-25T02:12:47.095Z,5.73
2022-10-25T02:14:46.316Z,5.73
2022-10-25T02:16:46.714Z,5.73
2022-10-25T02:18:46.978Z,5.73
2022-10-25T02:20:47.047Z,5.73
2022-10-25T02:22:46.714Z,5.73
2022-10-25T02:24:46.928Z,5.73
2022-10-25T02:26:47.058Z,5.73
2022-10-25T02:28:47.284Z,5.73
2022-10-25T02:30:47.268Z,5.73
2022-10-25T02:32:46.786Z,5.73
2022-10-25T02:34:47.050Z,5.73
2022-10-25T02:36:47.054Z,5.73
2022-10-25T02:38:46.776Z,5.73
2022-10-25T02:40:46.874Z,5.73
2022-10-25T02:42:46.251Z,5.73
2022-10-25T02:44:46.764Z,5.73
2022-10-25T02:46:46.259Z,5.73
2022-10-25T02:48:47.279Z,5.73
2022-10-25T02:50:47.296Z,5.73
2022-10-25T02:52:46.839Z,5.73
2022-10-25T02:54:46.935Z,5.73
2022-10-25T02:56:46.482Z,5.73
2022-10-25T02:58:46.943Z,5.73
2022-10-25T03:00:47.633Z,5.73
2022-10-25T03:02:46.875Z,5.73
2022-10-25T03:04:47.068Z,5.73
2022-10-25T03:06:46.636Z,5.73
2022-10-25T03:08:47.214Z,5.73
2022-10-25T03:10:46.289Z,5.73
2022-10-25T03:12:46.744Z,5.73
2022-10-25T03:14:46.745Z,5.73
2022-10-25T03:18:47.107Z,5.73
2022-10-25T03:20:46.787Z,5.73
2022-10-25T03:22:46.959Z,5.73
2022-10-25T03:24:46.376Z,5.73
2022-10-25T03:26:47.062Z,5.73
2022-10-25T03:28:46.350Z,5.73
2022-10-25T03:30:46.619Z,5.73
2022-10-25T03:32:47.154Z,5.73
2022-10-25T03:34:46.322Z,5.73
2022-10-25T03:36:47.027Z,5.73
2022-10-25T03:38:46.764Z,5.73
2022-10-25T03:40:47.385Z,5.73
2022-10-25T03:42:47.199Z,5.73
2022-10-25T03:44:46.621Z,5.73
2022-10-25T03:46:47.193Z,5.73
2022-10-25T03:48:46.646Z,5.73
2022-10-25T03:50:46.923Z,5.73
2022-10-25T03:52:50.010Z,5.73
2022-10-25T03:54:51.541Z,5.73
2022-10-25T03:56:46.565Z,5.73
2022-10-25T03:58:46.943Z,5.73
2022-10-25T04:00:48.213Z,5.73
2022-10-25T04:02:46.503Z,5.73
2022-10-25T04:04:46.614Z,5.73
2022-10-25T04:06:46.636Z,5.73
2022-10-25T04:08:46.824Z,5.73
2022-10-25T04:10:48.105Z,5.73
2022-10-25T04:12:47.229Z,5.73
2022-10-25T04:14:47.220Z,5.73
2022-10-25T04:16:52.104Z,5.73
2022-10-25T04:18:46.978Z,5.73
2022-10-25T04:20:46.737Z,5.73
2022-10-25T04:22:46.394Z,5.73
2022-10-25T04:24:49.698Z,5.73
2022-10-25T04:26:46.316Z,5.73
2022-10-25T04:28:46.372Z,5.73
2022-10-25T04:30:50.186Z,5.73
2022-10-25T04:32:46.920Z,5.73
2022-10-25T04:34:46.985Z,5.73
2022-10-25T04:36:46.323Z,5.73
2022-10-25T04:38:47.038Z,5.73
2022-10-25T04:40:47.663Z,5.73
2022-10-25T04:42:47.359Z,5.73
2022-10-25T04:44:47.294Z,5.73
2022-10-25T04:46:48.761Z,5.73
2022-10-25T04:48:46.539Z,5.73
2022-10-25T04:50:46.929Z,5.73
2022-10-25T04:52:47.485Z,5.73
2022-10-25T04:54:47.245Z,5.73
2022-10-25T04:56:46.304Z,5.73
2022-10-25T04:58:53.030Z,5.73
2022-10-25T05:00:49.039Z,5.73
2022-10-25T05:02:47.164Z,5.73
2022-10-25T05:04:46.548Z,5.73
2022-10-25T05:06:47.086Z,5.73
2022-10-25T05:08:46.375Z,5.73
2022-10-25T05:10:46.893Z,5.73
2022-10-25T05:12:47.258Z,5.73
2022-10-25T05:14:46.920Z,5.73
2022-10-25T05:16:46.863Z,5.73
2022-10-25T05:18:46.215Z,5.73
2022-10-25T05:20:47.021Z,5.73
2022-10-25T05:22:47.148Z,5.73
2022-10-25T05:24:47.620Z,5.73
2022-10-25T05:26:46.500Z,5.73
2022-10-25T05:28:47.021Z,5.73
2022-10-25T05:30:46.440Z,5.73
2022-10-25T05:32:47.465Z,5.73
2022-10-25T05:34:46.420Z,5.73
2022-10-25T05:36:46.928Z,5.73
2022-10-25T05:38:49.185Z,5.73
2022-10-25T05:40:47.279Z,5.73
2022-10-25T05:42:47.233Z,5.73
2022-10-25T05:44:46.593Z,5.73
2022-10-25T05:46:46.335Z,5.73
2022-10-25T05:48:48.877Z,5.73
2022-10-25T05:50:46.890Z,5.73
2022-10-25T05:52:46.490Z,5.73
2022-10-25T05:54:46.722Z,5.73
2022-10-25T05:56:47.220Z,5.73
2022-10-25T05:58:46.355Z,5.73
2022-10-25T06:00:49.463Z,5.73
2022-10-25T06:02:47.187Z,5.73
2022-10-25T06:04:51.546Z,5.73
2022-10-25T06:06:46.540Z,5.73
2022-10-25T06:08:47.207Z,5.73
2022-10-25T06:12:50.070Z,5.73
2022-10-25T06:14:46.622Z,5.73
2022-10-25T06:16:47.142Z,5.73
2022-10-25T06:18:46.661Z,5.73
2022-10-25T06:20:47.438Z,5.73
2022-10-25T06:22:47.291Z,5.73
2022-10-25T06:24:46.656Z,5.73
2022-10-25T07:48:56.984Z,5.73
2022-10-25T07:50:46.319Z,5.73
2022-10-25T07:52:47.057Z,5.73
2022-10-25T07:54:46.888Z,5.73
2022-10-25T07:56:47.573Z,5.73
2022-10-25T07:58:46.266Z,5.73
2022-10-25T08:00:49.360Z,5.73
2022-10-25T08:02:49.108Z,5.73
2022-10-25T08:04:49.048Z,5.73
2022-10-25T08:06:46.930Z,5.73
2022-10-25T08:08:47.044Z,5.73
2022-10-25T08:10:46.966Z,5.73
2022-10-25T08:12:46.555Z,5.73
2022-10-25T08:14:52.886Z,5.73
2022-10-25T08:16:47.167Z,5.73
2022-10-25T08:18:47.238Z,5.73
2022-10-25T08:21:19.189Z,5.73
2022-10-25T08:22:46.705Z,5.73
2022-10-25T08:24:46.518Z,5.73
2022-10-25T08:26:48.542Z,5.73
2022-10-25T08:28:46.434Z,5.73
2022-10-25T08:30:46.891Z,5.73
2022-10-25T08:32:46.554Z,5.73
2022-10-25T08:34:46.839Z,5.73
2022-10-25T08:36:46.449Z,5.73
2022-10-25T08:38:46.761Z,5.73
2022-10-25T08:40:47.197Z,5.73
2022-10-25T08:42:47.540Z,5.73
2022-10-25T08:44:46.898Z,5.73
2022-10-25T08:46:46.698Z,5.73
2022-10-25T08:48:46.944Z,5.73
2022-10-25T08:50:47.044Z,5.73
2022-10-25T08:52:51.284Z,26.96
2022-10-25T08:54:46.531Z,26.96
2022-10-25T08:57:27.252Z,1.52
2022-10-25T08:58:46.790Z,1.4
2022-10-25T09:00:49.402Z,1.4
2022-10-25T09:02:47.124Z,1.4
2022-10-25T09:04:46.392Z,0.84
2022-10-25T09:06:46.496Z,0.84
2022-10-25T09:08:46.745Z,0.84
2022-10-25T09:10:46.561Z,0.74
2022-10-25T09:12:47.063Z,0.74
2022-10-25T09:14:47.122Z,0.74
2022-10-25T09:16:46.718Z,0.63
2022-10-25T09:18:46.848Z,0.63
2022-10-25T09:20:46.891Z,0.63
2022-10-25T09:22:46.724Z,0.63
2022-10-25T09:24:46.866Z,0.63
2022-10-25T09:26:46.422Z,0.63
2022-10-25T09:28:46.746Z,0.58
2022-10-25T09:30:52.612Z,0.58
2022-10-25T09:32:47.130Z,0.58
2022-10-25T09:34:49.576Z,0.58
2022-10-25T09:36:47.298Z,0.58
2022-10-25T09:38:46.515Z,0.58
2022-10-25T09:40:47.906Z,0.58
2022-10-25T09:42:47.022Z,1.28
2022-10-25T09:44:47.097Z,0.89
2022-10-25T09:46:46.716Z,0.89
2022-10-25T09:48:46.465Z,0.63
2022-10-25T09:50:46.282Z,0.63
2022-10-25T09:52:46.838Z,0.63
2022-10-25T09:54:47.062Z,0.58
2022-10-25T09:56:46.574Z,0.63
2022-10-25T09:58:46.374Z,0.63
2022-10-25T10:00:48.961Z,0.58
2022-10-25T10:02:48.026Z,0.58
2022-10-25T10:04:46.901Z,0.58
2022-10-25T10:06:47.148Z,0.58
2022-10-25T10:08:46.846Z,0.58
2022-10-25T10:10:46.343Z,0.58
2022-10-25T10:12:47.243Z,0.53
2022-10-25T10:14:50.087Z,0.58
2022-10-25T10:16:47.178Z,0.58
2022-10-25T10:18:46.537Z,0.53
2022-10-25T10:20:46.427Z,0.53
2022-10-25T10:22:46.916Z,0.53
2022-10-25T10:24:46.677Z,0.53
2022-10-25T10:26:46.395Z,0.53
2022-10-25T10:28:46.646Z,0.53
2022-10-25T10:30:46.827Z,0.53
2022-10-25T10:32:46.489Z,0.53
2022-10-25T10:34:46.365Z,0.53
2022-10-25T10:36:46.421Z,0.53
2022-10-25T10:38:47.181Z,0.53
2022-10-25T10:40:49.297Z,0.53
2022-10-25T10:42:49.491Z,0.53
2022-10-25T10:44:46.890Z,0.53
2022-10-25T10:46:47.146Z,0.53
2022-10-25T10:48:54.070Z,0.53
2022-10-25T10:50:47.142Z,0.53
2022-10-25T10:52:47.408Z,0.53
2022-10-25T10:54:46.454Z,0.53
2022-10-25T10:56:46.613Z,0.53
2022-10-25T10:58:51.010Z,0.53
2022-10-25T11:00:49.366Z,0.53
2022-10-25T11:02:48.792Z,0.53
2022-10-25T11:04:48.847Z,0.53
2022-10-25T11:06:46.883Z,0.53
2022-10-25T11:08:46.438Z,0.53
2022-10-25T11:10:47.149Z,0.53
2022-10-25T11:12:52.469Z,0.53
2022-10-25T11:14:46.852Z,0.53
2022-10-25T11:16:50.591Z,0.53
2022-10-25T11:18:47.017Z,0.53
2022-10-25T11:20:46.355Z,0.53
2022-10-25T11:24:46.300Z,0.48
2022-10-25T11:26:46.489Z,0.53
2022-10-25T11:28:46.870Z,0.53
2022-10-25T11:30:46.567Z,0.53
2022-10-25T11:32:50.471Z,0.53
2022-10-25T11:34:46.914Z,0.53
2022-10-25T11:36:46.719Z,0.53
2022-10-25T11:38:46.586Z,0.53
2022-10-25T11:40:46.688Z,0.53
2022-10-25T11:42:47.173Z,0.53
2022-10-25T11:44:46.680Z,0.53
2022-10-25T11:46:46.863Z,0.53
2022-10-25T11:48:46.477Z,0.48
2022-10-25T11:50:46.712Z,0.53
2022-10-25T11:52:47.091Z,0.53
2022-10-25T11:54:46.925Z,0.53
2022-10-25T11:56:46.321Z,0.53
2022-10-25T11:58:52.952Z,0.53
2022-10-25T12:00:50.058Z,0.53
2022-10-25T12:02:47.275Z,0.48
2022-10-25T12:04:51.969Z,0.48
2022-10-25T12:06:47.002Z,0.48
2022-10-25T12:08:47.184Z,0.48
2022-10-25T12:10:47.291Z,0.48
2022-10-25T12:12:47.017Z,0.48
2022-10-25T12:14:46.686Z,0.48
2022-10-25T12:16:47.081Z,0.48
2022-10-25T12:18:48.868Z,0.48
2022-10-25T12:20:46.692Z,0.53
2022-10-25T12:22:47.650Z,0.53
2022-10-25T12:24:46.462Z,0.48
2022-10-25T12:26:47.110Z,0.48
2022-10-25T12:28:46.209Z,0.48
2022-10-25T12:30:46.696Z,0.48
2022-10-25T12:32:47.398Z,0.48
2022-10-25T12:34:46.513Z,0.48
2022-10-25T12:36:46.771Z,0.48
2022-10-25T12:38:46.386Z,0.48
2022-10-25T12:40:51.744Z,0.48
2022-10-25T12:42:46.803Z,0.48
2022-10-25T12:44:46.572Z,0.48
2022-10-25T12:46:47.096Z,0.48
2022-10-25T12:48:47.200Z,0.48
2022-10-25T12:50:46.914Z,0.48
2022-10-25T12:52:47.173Z,0.48
2022-10-25T12:54:47.014Z,0.48
2022-10-25T12:56:46.692Z,0.48
2022-10-25T12:58:46.978Z,0.48
2022-10-25T13:00:52.044Z,0.48
2022-10-25T13:02:46.757Z,0.48
2022-10-25T13:04:46.601Z,0.48
2022-10-25T13:06:46.863Z,0.48
2022-10-25T13:08:47.102Z,0.48
2022-10-25T13:10:46.623Z,0.48
2022-10-25T13:12:46.928Z,0.48
2022-10-25T13:14:46.370Z,0.48
2022-10-25T13:16:46.697Z,0.48
2022-10-25T13:18:46.654Z,0.48
2022-10-25T13:20:47.230Z,0.48
2022-10-25T13:22:50.424Z,0.48
2022-10-25T13:24:46.898Z,0.48
2022-10-25T13:26:47.072Z,0.48
2022-10-25T13:28:47.577Z,0.48
2022-10-25T13:30:46.733Z,0.48
2022-10-25T13:32:47.162Z,0.48
2022-10-25T13:34:46.339Z,0.48
2022-10-25T13:36:46.428Z,0.48
2022-10-25T13:38:50.790Z,0.48
2022-10-25T13:40:47.020Z,0.48
2022-10-25T13:42:46.913Z,0.48
2022-10-25T13:44:46.409Z,0.48
2022-10-25T13:46:46.457Z,0.48
2022-10-25T13:48:46.913Z,0.53
2022-10-25T13:50:47.518Z,0.53
2022-10-25T13:52:46.647Z,0.53
2022-10-25T13:54:46.911Z,0.53
2022-10-25T13:56:47.193Z,0.53
2022-10-25T13:58:48.290Z,0.53
2022-10-25T14:01:00.703Z,0.53
2022-10-25T14:02:47.034Z,0.53
2022-10-25T14:04:46.653Z,0.53
2022-10-25T14:06:52.117Z,0.53
2022-10-25T14:08:46.713Z,0.53
2022-10-25T14:10:47.264Z,0.53
2022-10-25T14:12:50.006Z,0.53
2022-10-25T14:14:47.131Z,0.53
2022-10-25T14:16:46.889Z,0.53
2022-10-25T14:18:47.041Z,0.53
2022-10-25T14:20:46.416Z,0.53
2022-10-25T14:22:49.664Z,0.53
2022-10-25T14:24:46.787Z,0.53
2022-10-25T14:26:46.432Z,0.53
2022-10-25T14:28:46.682Z,0.53
2022-10-25T14:30:47.262Z,0.53
2022-10-25T14:32:46.616Z,0.53
2022-10-25T14:34:47.053Z,0.53
2022-10-25T14:36:46.384Z,0.53
2022-10-25T14:38:46.497Z,0.53
2022-10-25T14:40:46.792Z,0.53
2022-10-25T14:42:47.365Z,0.53
2022-10-25T14:44:48.988Z,0.53
2022-10-25T14:46:46.453Z,0.53
2022-10-25T14:48:47.089Z,0.53
2022-10-25T14:50:47.415Z,0.53
2022-10-25T14:52:47.246Z,0.53
2022-10-25T14:54:46.603Z,0.53
2022-10-25T14:56:47.158Z,0.53
2022-10-25T14:58:47.155Z,0.53
2022-10-25T15:00:50.019Z,0.53
2022-10-25T15:02:47.370Z,0.53
2022-10-25T15:04:47.748Z,0.53
2022-10-25T15:06:47.015Z,0.53
2022-10-25T15:08:51.443Z,0.53
2022-10-25T15:10:47.158Z,0.53
2022-10-25T15:12:47.501Z,0.53
2022-10-25T15:14:46.899Z,0.53
2022-10-25T15:16:46.704Z,0.53
2022-10-25T15:18:47.122Z,0.53
2022-10-25T15:20:46.928Z,0.53
2022-10-25T15:22:46.849Z,0.53
2022-10-25T15:24:47.180Z,0.53
2022-10-25T15:26:50.257Z,0.53
2022-10-25T15:28:46.768Z,0.53
2022-10-25T15:30:46.585Z,0.53
2022-10-25T15:32:47.460Z,0.53
2022-10-25T15:34:47.181Z,0.53
2022-10-25T15:36:46.588Z,0.53
2022-10-25T15:39:21.565Z,0.53
2022-10-25T15:40:46.616Z,0.53
2022-10-25T15:42:49.738Z,0.53
2022-10-25T15:44:47.033Z,0.53
2022-10-25T15:46:47.197Z,0.53
2022-10-25T15:48:48.385Z,0.53
2022-10-25T15:50:46.863Z,0.53
2022-10-25T15:52:46.784Z,0.53
2022-10-25T15:54:46.911Z,0.53
2022-10-25T15:56:47.174Z,0.53
2022-10-25T15:58:46.916Z,0.53
2022-10-25T16:00:51.146Z,0.53
2022-10-25T16:02:47.283Z,0.53
2022-10-25T16:04:46.219Z,0.53
2022-10-25T16:06:46.484Z,0.53
2022-10-25T16:08:46.993Z,0.53
2022-10-25T16:10:46.518Z,0.53
2022-10-25T16:12:46.456Z,0.53
2022-10-25T16:14:46.335Z,0.53
2022-10-25T16:17:14.323Z,0.53
2022-10-25T16:18:49.757Z,0.53
2022-10-25T16:20:46.499Z,0.53
2022-10-25T16:22:47.279Z,0.53
2022-10-25T16:24:46.429Z,0.53
2022-10-25T16:26:46.449Z,0.53
2022-10-25T16:28:46.737Z,0.53
2022-10-25T16:30:49.744Z,0.53
2022-10-25T16:32:46.750Z,0.53
2022-10-25T16:34:46.985Z,0.53
2022-10-25T16:36:46.553Z,0.53
2022-10-25T16:38:47.275Z,0.53
2022-10-25T16:40:47.168Z,0.53
2022-10-25T16:42:46.737Z,0.53
2022-10-25T16:44:46.927Z,0.48
2022-10-25T16:46:46.557Z,0.48
2022-10-25T16:48:46.777Z,0.53
2022-10-25T16:50:46.586Z,0.53
2022-10-25T16:52:46.937Z,0.53
2022-10-25T16:54:49.263Z,0.53
2022-10-25T16:56:46.697Z,0.53
2022-10-25T16:58:46.871Z,0.53
2022-10-25T17:00:49.146Z,0.53
2022-10-25T17:02:47.252Z,0.48
2022-10-25T17:04:47.222Z,0.48
2022-10-25T17:07:15.655Z,0.53
2022-10-25T17:08:46.421Z,0.48
2022-10-25T17:10:46.907Z,0.48
2022-10-25T17:12:47.041Z,0.48
2022-10-25T17:14:46.456Z,0.53
2022-10-25T17:16:46.488Z,0.53
2022-10-25T17:18:49.035Z,0.48
2022-10-25T17:20:46.818Z,0.53
2022-10-25T17:22:46.737Z,0.53
2022-10-25T17:24:46.382Z,0.53
2022-10-25T17:26:47.106Z,0.53
2022-10-25T17:28:52.573Z,0.53
2022-10-25T17:30:46.234Z,0.53
2022-10-25T17:32:46.953Z,0.53
2022-10-25T17:34:46.330Z,0.53
2022-10-25T17:36:46.404Z,0.53
2022-10-25T17:38:46.991Z,0.53
2022-10-25T17:40:46.632Z,0.53
2022-10-25T17:42:46.836Z,0.53
2022-10-25T17:44:46.784Z,0.48
2022-10-25T17:46:47.094Z,0.48
2022-10-25T17:48:46.859Z,0.53
2022-10-25T17:50:46.714Z,0.53
2022-10-25T17:52:46.900Z,0.53
2022-10-25T17:54:47.228Z,0.53
2022-10-25T17:56:47.072Z,0.53
2022-10-25T17:58:46.561Z,0.53
2022-10-25T18:00:46.403Z,0.53
2022-10-25T18:02:47.558Z,0.48
2022-10-25T18:05:20.591Z,0.48
2022-10-25T18:06:46.970Z,0.53
2022-10-25T18:08:46.416Z,0.53
2022-10-25T18:10:46.733Z,0.53
2022-10-25T18:12:46.918Z,0.48
2022-10-25T18:14:46.419Z,0.53
2022-10-25T18:16:46.590Z,0.53
2022-10-25T18:18:46.509Z,0.53
2022-10-25T18:20:49.192Z,0.48
2022-10-25T18:22:46.737Z,0.48
2022-10-25T18:24:46.915Z,0.48
2022-10-25T18:26:46.460Z,0.53
2022-10-25T18:28:47.125Z,0.53
2022-10-25T18:30:46.404Z,0.53
2022-10-25T18:32:47.709Z,0.53
2022-10-25T18:34:46.910Z,0.53
2022-10-25T18:36:46.695Z,0.53
2022-10-25T18:38:51.635Z,0.53
2022-10-25T18:40:46.329Z,0.53
2022-10-25T18:42:47.104Z,0.53
2022-10-25T18:44:49.228Z,0.53
2022-10-25T18:46:46.555Z,0.53
2022-10-25T18:48:46.845Z,0.53
2022-10-25T18:50:53.020Z,0.53
2022-10-25T18:52:47.074Z,0.53
2022-10-25T18:54:46.306Z,0.53
2022-10-25T18:56:49.784Z,0.53
2022-10-25T18:58:47.147Z,0.53
2022-10-25T19:00:51.744Z,0.53
2022-10-25T19:02:49.262Z,0.53
2022-10-25T19:04:46.749Z,0.53
2022-10-25T19:06:47.244Z,0.53
2022-10-25T19:08:46.446Z,0.53
2022-10-25T19:10:46.835Z,0.53
2022-10-25T19:12:46.456Z,0.53
2022-10-25T19:16:46.714Z,0.53
2022-10-25T19:18:46.922Z,0.53
2022-10-25T19:20:46.675Z,0.53
2022-10-25T19:22:47.214Z,0.53
2022-10-25T19:24:46.477Z,0.53
2022-10-25T19:26:46.560Z,0.53
2022-10-25T19:28:47.018Z,0.53
2022-10-25T19:30:49.001Z,0.53
2022-10-25T19:32:47.154Z,0.53
2022-10-25T19:34:46.491Z,0.53
2022-10-25T19:36:46.778Z,0.53
2022-10-25T19:38:46.657Z,0.53
2022-10-25T19:40:46.683Z,0.53
2022-10-25T19:42:46.254Z,0.53
2022-10-25T19:44:47.313Z,0.53
2022-10-25T19:46:46.802Z,0.53
2022-10-25T19:48:46.494Z,0.53
2022-10-25T19:50:47.044Z,0.53
2022-10-25T19:52:46.802Z,0.53
2022-10-25T19:54:46.890Z,0.58
2022-10-25T19:56:46.752Z,0.53
2022-10-25T19:58:46.628Z,0.53
2022-10-25T20:00:57.872Z,0.53
2022-10-25T20:02:47.264Z,0.53
2022-10-25T20:04:47.090Z,0.53
2022-10-25T20:06:47.720Z,0.53
2022-10-25T20:08:46.816Z,0.53
2022-10-25T20:10:46.369Z,0.53
2022-10-25T20:12:46.802Z,0.53
2022-10-25T20:14:47.090Z,0.53
2022-10-25T20:16:47.087Z,0.53
2022-10-25T20:18:46.801Z,0.53
2022-10-25T20:20:49.411Z,0.58
2022-10-25T20:22:46.330Z,0.58
2022-10-25T20:24:46.712Z,0.53
2022-10-25T20:26:47.105Z,0.58
2022-10-25T20:28:46.561Z,0.58
2022-10-25T20:30:46.935Z,0.58
2022-10-25T20:32:46.374Z,0.58
2022-10-25T20:34:46.346Z,0.58
2022-10-25T20:36:46.222Z,0.58
2022-10-25T20:38:46.379Z,0.58
2022-10-25T20:40:46.797Z,0.58
2022-10-25T20:42:46.419Z,0.58
2022-10-25T20:44:46.401Z,0.58
2022-10-25T20:46:46.674Z,0.58
2022-10-25T20:48:46.165Z,0.58
2022-10-25T20:50:46.903Z,0.58
2022-10-25T20:53:09.794Z,0.58
2022-10-25T20:54:47.015Z,0.58
2022-10-25T20:56:46.309Z,0.58
2022-10-25T20:58:46.910Z,0.58
2022-10-25T21:00:54.455Z,0.58
2022-10-25T21:02:47.024Z,0.58
2022-10-25T21:05:11.989Z,0.58
2022-10-25T21:06:46.508Z,0.53
2022-10-25T21:08:46.994Z,0.58
2022-10-25T21:10:46.650Z,0.58
2022-10-25T21:12:46.198Z,0.58
2022-10-25T21:14:47.077Z,0.58
2022-10-25T21:16:47.193Z,0.58
2022-10-25T21:18:46.391Z,0.58
2022-10-25T21:20:46.764Z,0.58
2022-10-25T21:22:47.197Z,0.58
2022-10-25T21:24:46.568Z,0.58
2022-10-25T21:26:47.105Z,0.58
2022-10-25T21:28:46.558Z,0.58
2022-10-25T21:30:46.945Z,0.58
2022-10-25T21:32:46.525Z,0.58
2022-10-25T21:34:46.534Z,0.58
2022-10-25T21:36:46.543Z,0.58
2022-10-25T21:38:47.088Z,0.58
2022-10-25T21:40:46.724Z,0.58
2022-10-25T21:42:46.325Z,0.58
2022-10-25T21:44:46.621Z,0.58
2022-10-25T21:46:46.493Z,0.58
2022-10-25T21:48:46.989Z,0.58
2022-10-25T21:50:46.912Z,0.58
2022-10-25T21:52:47.146Z,0.58
2022-10-25T21:54:47.043Z,0.58
2022-10-25T21:56:46.606Z,0.58
2022-10-25T21:58:46.730Z,0.58
2022-10-25T22:00:52.387Z,0.58
2022-10-25T22:02:48.491Z,0.58
2022-10-25T22:04:46.235Z,0.58
2022-10-25T22:06:47.053Z,0.58
2022-10-25T22:08:46.463Z,0.58
2022-10-25T22:10:46.292Z,0.58
2022-10-25T22:12:47.404Z,0.58
2022-10-25T22:14:47.132Z,0.58
2022-10-25T22:16:46.823Z,0.58
2022-10-25T22:18:46.829Z,0.58
2022-10-25T22:20:46.444Z,0.58
2022-10-25T22:22:46.941Z,0.58
2022-10-25T22:24:46.408Z,0.58
2022-10-25T22:26:46.578Z,0.58
2022-10-25T22:28:52.106Z,0.58
2022-10-25T22:30:47.263Z,0.58
2022-10-25T22:32:46.796Z,0.58
2022-10-25T22:34:47.160Z,0.58
2022-10-25T22:36:46.733Z,0.58
2022-10-25T22:38:47.053Z,0.58
2022-10-25T22:40:46.471Z,0.58
2022-10-25T22:42:46.793Z,0.58
2022-10-25T22:44:47.025Z,0.58
2022-10-25T22:46:46.594Z,0.58
2022-10-25T22:48:47.047Z,0.58
2022-10-25T22:50:46.611Z,0.58
2022-10-25T22:52:46.787Z,0.58
2022-10-25T22:54:46.348Z,0.58
2022-10-25T22:56:47.283Z,0.58
2022-10-25T22:58:46.565Z,0.58
2022-10-25T23:00:49.965Z,0.58
2022-10-25T23:02:47.358Z,0.58
2022-10-25T23:04:47.430Z,0.58
2022-10-25T23:06:47.045Z,0.58
2022-10-25T23:08:46.859Z,0.58
2022-10-25T23:10:46.974Z,0.58
2022-10-25T23:12:47.452Z,0.58
2022-10-25T23:14:51.398Z,0.58
2022-10-25T23:16:46.807Z,0.58
2022-10-25T23:18:46.609Z,0.58
2022-10-25T23:20:46.336Z,0.58
2022-10-25T23:22:47.058Z,0.58
2022-10-25T23:24:47.061Z,0.58
2022-10-25T23:26:47.195Z,0.58
2022-10-25T23:28:46.546Z,0.58
2022-10-25T23:30:47.205Z,0.58
2022-10-25T23:32:46.949Z,0.58
2022-10-25T23:34:46.974Z,0.58
2022-10-25T23:36:46.696Z,0.58
2022-10-25T23:38:46.439Z,0.58
2022-10-25T23:40:46.715Z,0.58
2022-10-25T23:42:46.528Z,0.58
2022-10-25T23:44:46.791Z,0.58
2022-10-25T23:46:46.888Z,0.58
2022-10-25T23:48:47.250Z,0.58
2022-10-25T23:50:47.003Z,0.58
2022-10-25T23:52:46.784Z,0.58
2022-10-25T23:54:46.937Z,0.58
2022-10-25T23:56:47.058Z,0.58
2022-10-25T23:58:46.640Z,0.58
